Hansa Marburg — A8KV6 — position and weather

sailwx.info

Track history (hours):
 
Tides and Currents Weather Stations Pressure Air Temp Water Temp Dewpoint Dewpoint Depression Visibility Wind Speed Wind Dir Waves Ship Positions

Hansa Marburg

Last reported at 2014-Nov-22 09:33 UTC. Time now 2014-Nov-27 05:39 UTC.
Position N 35°58' W 005°33'.

Length 175 m; draft 10.7 m.

Type: Cargo ship. MMSI: 636091218.

Date/timePositionNaut miles runAvg speedWind from/ knotsBaromVisibWave heightAir tempDewpointWater temp
2014-Nov-22 09:33N 35°58' W 005°33'10 9.9
2014-Nov-22 08:33N 36°05' W 005°24'5 1.0
2014-Nov-22 03:28N 36°10' W 005°26'0 0.0
2014-Nov-22 02:25N 36°10' W 005°26'0 0.0
2014-Nov-22 01:04N 36°10' W 005°26'2 0.4
2014-Nov-21 21:05N 36°08' W 005°26'1 0.1
2014-Nov-21 11:33N 36°09' W 005°25'6 6.0
2014-Nov-21 10:33N 36°03' W 005°23'9 8.6
2014-Nov-21 09:34N 35°57' W 005°31'212 9.6
2014-Nov-20 11:32N 37°30' W 009°28'1111.1
2014-Nov-20 10:32N 37°41' W 009°25'1010.0
2014-Nov-20 09:32N 37°51' W 009°22'10 9.7
2014-Nov-20 08:32N 38°00' W 009°19'9 9.4
2014-Nov-20 07:32N 38°10' W 009°20'10 9.4
2014-Nov-20 06:29N 38°20' W 009°21'18 9.2
2014-Nov-20 04:32N 38°37' W 009°22'10 9.5
2014-Nov-20 03:32N 38°41' W 009°11'1 1.1
2014-Nov-20 02:31N 38°42' W 009°10'0 0.0
2014-Nov-20 01:31N 38°42' W 009°10'0 0.0
2014-Nov-20 00:31N 38°42' W 009°10'0 0.0
2014-Nov-19 23:31N 38°42' W 009°10'0 0.0
2014-Nov-19 22:31N 38°42' W 009°10'0 0.0
2014-Nov-19 21:31N 38°42' W 009°10'0 0.0
2014-Nov-19 20:28N 38°42' W 009°10'0 0.0
2014-Nov-19 19:31N 38°42' W 009°10'0 0.0
2014-Nov-19 18:32N 38°42' W 009°10'0 0.0
2014-Nov-19 17:33N 38°42' W 009°10'0 0.0
2014-Nov-19 16:31N 38°42' W 009°10'0 0.0
2014-Nov-19 15:31N 38°42' W 009°10'0 0.0
2014-Nov-19 14:32N 38°42' W 009°10'0 0.0
2014-Nov-19 13:32N 38°42' W 009°10'1 0.7
2014-Nov-19 12:33N 38°42' W 009°11'8 7.7
2014-Nov-19 11:33N 38°39' W 009°20'  
2014-Nov-16 03:31N 37°57' W 009°36'1010.1
2014-Nov-16 02:33N 37°47' W 009°34'1010.2
2014-Nov-16 01:33N 37°37' W 009°31'77 8.5
2014-Nov-15 16:31N 36°35' W 008°33'152 9.5
2014-Nov-15 00:26N 35°59' W 005°30'7 7.8
2014-Nov-14 23:33N 36°02' W 005°22'10 9.8
2014-Nov-14 22:33N 36°09' W 005°14'3 3.1
2014-Nov-14 21:30N 36°11' W 005°11'2 1.8
2014-Nov-14 20:33N 36°10' W 005°12'1010.3
2014-Nov-14 19:32N 36°09' W 005°25'1 0.3
2014-Nov-14 17:29N 36°10' W 005°25'0 0.0
2014-Nov-13 22:33N 36°10' W 005°25'0 0.0
2014-Nov-13 21:15N 36°10' W 005°25'0 0.0
2014-Nov-13 20:29N 36°10' W 005°25'0 0.0
2014-Nov-13 19:26N 36°10' W 005°25'0 0.0
2014-Nov-13 18:23N 36°10' W 005°26'0 0.1
2014-Nov-13 16:32N 36°09' W 005°26'0 0.1
2014-Nov-13 15:20N 36°10' W 005°26'0 0.0
2014-Nov-13 14:26N 36°10' W 005°26'0 0.0
2014-Nov-13 13:28N 36°10' W 005°26'0 0.0
2014-Nov-13 09:25N 36°10' W 005°25'0 0.1
2014-Nov-13 08:16N 36°09' W 005°25'0 0.0
2014-Nov-13 03:19N 36°09' W 005°25'0 0.0
2014-Nov-12 21:21N 36°10' W 005°25'0 0.0
2014-Nov-12 18:26N 36°09' W 005°25'0 0.0
2014-Nov-12 16:29N 36°09' W 005°25'0 0.0
2014-Nov-12 15:29N 36°09' W 005°25'0 0.0
2014-Nov-12 14:05N 36°09' W 005°25'0 0.0
2014-Nov-12 11:22N 36°09' W 005°25'  
Track history (hours):
 
Tides and Currents Weather Stations Pressure Air Temp Water Temp Dewpoint Dewpoint Depression Visibility Wind Speed Wind Dir Waves Ship Positions

Hansa Marburg

Last reported at 2014-Nov-22 09:33 UTC. Time now 2014-Nov-27 05:39 UTC.
Position N 35°58' W 005°33'.

Length 175 m; draft 10.7 m.

Type: Cargo ship. MMSI: 636091218.

Date/timePositionNaut miles runAvg speedWind from/ knotsBaromVisibWave heightAir tempDewpointWater temp
2014-Nov-22 09:33N 35°58' W 005°33'10 9.9
2014-Nov-22 08:33N 36°05' W 005°24'5 1.0
2014-Nov-22 03:28N 36°10' W 005°26'0 0.0
2014-Nov-22 02:25N 36°10' W 005°26'0 0.0
2014-Nov-22 01:04N 36°10' W 005°26'2 0.4
2014-Nov-21 21:05N 36°08' W 005°26'1 0.1
2014-Nov-21 11:33N 36°09' W 005°25'6 6.0
2014-Nov-21 10:33N 36°03' W 005°23'9 8.6
2014-Nov-21 09:34N 35°57' W 005°31'212 9.6
2014-Nov-20 11:32N 37°30' W 009°28'1111.1
2014-Nov-20 10:32N 37°41' W 009°25'1010.0
2014-Nov-20 09:32N 37°51' W 009°22'10 9.7
2014-Nov-20 08:32N 38°00' W 009°19'9 9.4
2014-Nov-20 07:32N 38°10' W 009°20'10 9.4
2014-Nov-20 06:29N 38°20' W 009°21'18 9.2
2014-Nov-20 04:32N 38°37' W 009°22'10 9.5
2014-Nov-20 03:32N 38°41' W 009°11'1 1.1
2014-Nov-20 02:31N 38°42' W 009°10'0 0.0
2014-Nov-20 01:31N 38°42' W 009°10'0 0.0
2014-Nov-20 00:31N 38°42' W 009°10'0 0.0
2014-Nov-19 23:31N 38°42' W 009°10'0 0.0
2014-Nov-19 22:31N 38°42' W 009°10'0 0.0
2014-Nov-19 21:31N 38°42' W 009°10'0 0.0
2014-Nov-19 20:28N 38°42' W 009°10'0 0.0
2014-Nov-19 19:31N 38°42' W 009°10'0 0.0
2014-Nov-19 18:32N 38°42' W 009°10'0 0.0
2014-Nov-19 17:33N 38°42' W 009°10'0 0.0
2014-Nov-19 16:31N 38°42' W 009°10'0 0.0
2014-Nov-19 15:31N 38°42' W 009°10'0 0.0
2014-Nov-19 14:32N 38°42' W 009°10'0 0.0
2014-Nov-19 13:32N 38°42' W 009°10'1 0.7
2014-Nov-19 12:33N 38°42' W 009°11'8 7.7
2014-Nov-19 11:33N 38°39' W 009°20'  
2014-Nov-16 03:31N 37°57' W 009°36'1010.1
2014-Nov-16 02:33N 37°47' W 009°34'1010.2
2014-Nov-16 01:33N 37°37' W 009°31'77 8.5
2014-Nov-15 16:31N 36°35' W 008°33'152 9.5
2014-Nov-15 00:26N 35°59' W 005°30'7 7.8
2014-Nov-14 23:33N 36°02' W 005°22'10 9.8
2014-Nov-14 22:33N 36°09' W 005°14'3 3.1
2014-Nov-14 21:30N 36°11' W 005°11'2 1.8
2014-Nov-14 20:33N 36°10' W 005°12'1010.3
2014-Nov-14 19:32N 36°09' W 005°25'1 0.3
2014-Nov-14 17:29N 36°10' W 005°25'0 0.0
2014-Nov-13 22:33N 36°10' W 005°25'0 0.0
2014-Nov-13 21:15N 36°10' W 005°25'0 0.0
2014-Nov-13 20:29N 36°10' W 005°25'0 0.0
2014-Nov-13 19:26N 36°10' W 005°25'0 0.0
2014-Nov-13 18:23N 36°10' W 005°26'0 0.1
2014-Nov-13 16:32N 36°09' W 005°26'0 0.1
2014-Nov-13 15:20N 36°10' W 005°26'0 0.0
2014-Nov-13 14:26N 36°10' W 005°26'0 0.0
2014-Nov-13 13:28N 36°10' W 005°26'0 0.0
2014-Nov-13 09:25N 36°10' W 005°25'0 0.1
2014-Nov-13 08:16N 36°09' W 005°25'0 0.0
2014-Nov-13 03:19N 36°09' W 005°25'0 0.0
2014-Nov-12 21:21N 36°10' W 005°25'0 0.0
2014-Nov-12 18:26N 36°09' W 005°25'0 0.0
2014-Nov-12 16:29N 36°09' W 005°25'0 0.0
2014-Nov-12 15:29N 36°09' W 005°25'0 0.0
2014-Nov-12 14:05N 36°09' W 005°25'0 0.0
2014-Nov-12 11:22N 36°09' W 005°25'  

Dump ship's entire track history